National Geographic Sea Lion — WUR9646 — position and weather

sailwx.info

Track history (hours):
 
Tides and Currents Weather Stations Pressure Air Temp Water Temp Dewpoint Dewpoint Depression Visibility Wind Speed Wind Dir Waves Ship Positions

National Geographic Sea Lion

Owner: Lindblad Expeditions LLC, SEATTLE, WA. More information available from US FCC via Universal Licensing System and Coast Guard Vessel Documentation Center.

Last reported at 2019-Jun-14 06:25 UTC. Time now 2019-Jun-17 18:38 UTC.
Position N 58°10' W 135°27'.

Length 45 m; draft 2.4 m.

Type: Passenger vessel. MMSI: 366396000.

Date/timePositionNaut miles runAvg speedWind from/ knotsBaromVisibWave heightAir tempDewpointWater temp
2019-Jun-14 06:25N 58°10' W 135°27'7 7.7
2019-Jun-14 05:32N 58°16' W 135°34'2 8.9
2019-Jun-14 05:22N 58°17' W 135°36'4 9.9
2019-Jun-14 05:00N 58°17' W 135°43'510.5
2019-Jun-14 04:30N 58°17' W 135°53'611.6
2019-Jun-14 04:00N 58°15' W 136°04'611.4
2019-Jun-14 03:29N 58°14' W 136°15'3 0.5
2019-Jun-13 22:24N 58°14' W 136°20'3 3.8
2019-Jun-13 21:38N 58°17' W 136°20'4 0.6
2019-Jun-13 15:34N 58°19' W 136°15'1 8.8
2019-Jun-13 15:30N 58°19' W 136°14'2 3.4
2019-Jun-13 15:00N 58°20' W 136°11'4 7.5
2019-Jun-13 14:30N 58°20' W 136°04'2 4.4
2019-Jun-13 14:01N 58°18' W 136°01'0 0.0
2019-Jun-13 13:30N 58°18' W 136°01'0 0.1
2019-Jun-13 13:00N 58°18' W 136°01'0 0.1
2019-Jun-13 12:30N 58°18' W 136°01'0 0.0
2019-Jun-13 12:00N 58°18' W 136°01'0 0.0
2019-Jun-13 11:27N 58°18' W 136°01'0 0.0
2019-Jun-13 10:51N 58°18' W 136°01'0 0.0
2019-Jun-13 10:30N 58°18' W 136°01'0 0.0
2019-Jun-13 10:00N 58°18' W 136°01'0 0.0
2019-Jun-13 09:27N 58°18' W 136°01'0 0.0
2019-Jun-13 09:00N 58°18' W 136°01'0 0.0
2019-Jun-13 08:30N 58°18' W 136°01'0 0.0
2019-Jun-13 07:57N 58°18' W 136°01'0 0.0
2019-Jun-13 07:30N 58°18' W 136°01'0 0.1
2019-Jun-13 07:00N 58°18' W 136°01'2 3.4
2019-Jun-13 06:30N 58°17' W 135°58'510.1
2019-Jun-13 06:00N 58°15' W 136°06'4 3.7
2019-Jun-13 04:54N 58°12' W 136°12'1 1.6
2019-Jun-13 04:23N 58°13' W 136°11'1 1.8
2019-Jun-13 03:59N 58°13' W 136°11'2 5.1
2019-Jun-13 03:31N 58°14' W 136°16'1 1.5
2019-Jun-13 02:37N 58°12' W 136°15'0 0.1
2019-Jun-13 02:16N 58°12' W 136°15'0 0.0
2019-Jun-13 01:52N 58°12' W 136°15'0 0.0
2019-Jun-13 01:22N 58°12' W 136°15'0 0.0
2019-Jun-13 00:52N 58°12' W 136°15'0 0.0
2019-Jun-13 00:19N 58°12' W 136°15'0 0.1
2019-Jun-12 23:58N 58°12' W 136°15'0 0.0
2019-Jun-12 23:25N 58°12' W 136°15'0 0.0
2019-Jun-12 22:58N 58°12' W 136°15'2 3.5
2019-Jun-12 22:27N 58°14' W 136°17'1 1.5
2019-Jun-12 21:32N 58°14' W 136°20'0 3.2
2019-Jun-12 21:29N 58°14' W 136°20'0 0.0
2019-Jun-12 15:14N 58°14' W 136°20'1 4.4
2019-Jun-12 15:00N 58°14' W 136°18'3 5.2
2019-Jun-12 14:31N 58°16' W 136°16'4 7.1
2019-Jun-12 14:00N 58°15' W 136°10'3 6.5
2019-Jun-12 13:30N 58°14' W 136°03'4 7.2
2019-Jun-12 13:00N 58°16' W 135°57'4 7.4
2019-Jun-12 12:30N 58°17' W 135°51'3 6.1
2019-Jun-12 12:00N 58°17' W 135°45'3 6.8
2019-Jun-12 11:30N 58°15' W 135°39'3 6.5
2019-Jun-12 11:00N 58°14' W 135°34'3 6.7
2019-Jun-12 10:30N 58°12' W 135°28'4 7.5
2019-Jun-12 09:59N 58°10' W 135°22'  
2019-Jun-05 06:33N 58°14' W 135°29'2 8.7
2019-Jun-05 06:19N 58°15' W 135°31'3 9.3
2019-Jun-05 06:00N 58°16' W 135°36'510.5
2019-Jun-05 05:30N 58°17' W 135°46'4 6.9
2019-Jun-05 05:00N 58°17' W 135°53'4 8.3
2019-Jun-05 04:30N 58°15' W 135°59'4 8.0
2019-Jun-05 04:00N 58°19' W 135°60'3 6.1
2019-Jun-05 03:30N 58°19' W 136°06'4 7.7
2019-Jun-05 03:00N 58°18' W 136°12'4 7.0
2019-Jun-05 02:30N 58°15' W 136°16'3 5.0
2019-Jun-05 01:59N 58°12' W 136°15'0 0.0
2019-Jun-05 01:23N 58°12' W 136°15'0 0.0
2019-Jun-05 00:53N 58°12' W 136°15'0 0.0
2019-Jun-05 00:29N 58°12' W 136°15'0 0.0
2019-Jun-04 23:38N 58°12' W 136°15'0 0.0
2019-Jun-04 23:23N 58°12' W 136°15'0 0.1
2019-Jun-04 22:59N 58°12' W 136°16'0 0.1
2019-Jun-04 22:29N 58°12' W 136°15'0 1.0
2019-Jun-04 22:00N 58°13' W 136°16'6 0.9
2019-Jun-04 14:59N 58°18' W 136°21'510.0
2019-Jun-04 14:30N 58°19' W 136°12'6 9.4
2019-Jun-04 13:53N 58°18' W 136°01'0 0.1
2019-Jun-04 13:27N 58°18' W 136°01'0 0.1
2019-Jun-04 13:00N 58°18' W 136°01'0 0.1
2019-Jun-04 12:30N 58°18' W 136°01'0 0.0
2019-Jun-04 12:00N 58°18' W 136°01'0 0.0
2019-Jun-04 11:30N 58°18' W 136°01'0 0.0
2019-Jun-04 11:00N 58°18' W 136°01'0 0.1
2019-Jun-04 10:30N 58°18' W 136°01'0 0.0
2019-Jun-04 09:57N 58°18' W 136°01'0 0.1
2019-Jun-04 09:30N 58°18' W 136°01'0 0.0
2019-Jun-04 09:00N 58°18' W 136°01'0 0.0
2019-Jun-04 08:30N 58°18' W 136°01'0 0.1
2019-Jun-04 08:00N 58°18' W 136°01'0 0.0
2019-Jun-04 07:24N 58°18' W 136°01'0 0.0
2019-Jun-04 07:00N 58°18' W 136°01'0 0.0
2019-Jun-04 06:30N 58°18' W 136°01'  
Track history (hours):
 
Tides and Currents Weather Stations Pressure Air Temp Water Temp Dewpoint Dewpoint Depression Visibility Wind Speed Wind Dir Waves Ship Positions

National Geographic Sea Lion

Owner: Lindblad Expeditions LLC, SEATTLE, WA. More information available from US FCC via Universal Licensing System and Coast Guard Vessel Documentation Center.

Last reported at 2019-Jun-14 06:25 UTC. Time now 2019-Jun-17 18:38 UTC.
Position N 58°10' W 135°27'.

Length 45 m; draft 2.4 m.

Type: Passenger vessel. MMSI: 366396000.

Date/timePositionNaut miles runAvg speedWind from/ knotsBaromVisibWave heightAir tempDewpointWater temp
2019-Jun-14 06:25N 58°10' W 135°27'7 7.7
2019-Jun-14 05:32N 58°16' W 135°34'2 8.9
2019-Jun-14 05:22N 58°17' W 135°36'4 9.9
2019-Jun-14 05:00N 58°17' W 135°43'510.5
2019-Jun-14 04:30N 58°17' W 135°53'611.6
2019-Jun-14 04:00N 58°15' W 136°04'611.4
2019-Jun-14 03:29N 58°14' W 136°15'3 0.5
2019-Jun-13 22:24N 58°14' W 136°20'3 3.8
2019-Jun-13 21:38N 58°17' W 136°20'4 0.6
2019-Jun-13 15:34N 58°19' W 136°15'1 8.8
2019-Jun-13 15:30N 58°19' W 136°14'2 3.4
2019-Jun-13 15:00N 58°20' W 136°11'4 7.5
2019-Jun-13 14:30N 58°20' W 136°04'2 4.4
2019-Jun-13 14:01N 58°18' W 136°01'0 0.0
2019-Jun-13 13:30N 58°18' W 136°01'0 0.1
2019-Jun-13 13:00N 58°18' W 136°01'0 0.1
2019-Jun-13 12:30N 58°18' W 136°01'0 0.0
2019-Jun-13 12:00N 58°18' W 136°01'0 0.0
2019-Jun-13 11:27N 58°18' W 136°01'0 0.0
2019-Jun-13 10:51N 58°18' W 136°01'0 0.0
2019-Jun-13 10:30N 58°18' W 136°01'0 0.0
2019-Jun-13 10:00N 58°18' W 136°01'0 0.0
2019-Jun-13 09:27N 58°18' W 136°01'0 0.0
2019-Jun-13 09:00N 58°18' W 136°01'0 0.0
2019-Jun-13 08:30N 58°18' W 136°01'0 0.0
2019-Jun-13 07:57N 58°18' W 136°01'0 0.0
2019-Jun-13 07:30N 58°18' W 136°01'0 0.1
2019-Jun-13 07:00N 58°18' W 136°01'2 3.4
2019-Jun-13 06:30N 58°17' W 135°58'510.1
2019-Jun-13 06:00N 58°15' W 136°06'4 3.7
2019-Jun-13 04:54N 58°12' W 136°12'1 1.6
2019-Jun-13 04:23N 58°13' W 136°11'1 1.8
2019-Jun-13 03:59N 58°13' W 136°11'2 5.1
2019-Jun-13 03:31N 58°14' W 136°16'1 1.5
2019-Jun-13 02:37N 58°12' W 136°15'0 0.1
2019-Jun-13 02:16N 58°12' W 136°15'0 0.0
2019-Jun-13 01:52N 58°12' W 136°15'0 0.0
2019-Jun-13 01:22N 58°12' W 136°15'0 0.0
2019-Jun-13 00:52N 58°12' W 136°15'0 0.0
2019-Jun-13 00:19N 58°12' W 136°15'0 0.1
2019-Jun-12 23:58N 58°12' W 136°15'0 0.0
2019-Jun-12 23:25N 58°12' W 136°15'0 0.0
2019-Jun-12 22:58N 58°12' W 136°15'2 3.5
2019-Jun-12 22:27N 58°14' W 136°17'1 1.5
2019-Jun-12 21:32N 58°14' W 136°20'0 3.2
2019-Jun-12 21:29N 58°14' W 136°20'0 0.0
2019-Jun-12 15:14N 58°14' W 136°20'1 4.4
2019-Jun-12 15:00N 58°14' W 136°18'3 5.2
2019-Jun-12 14:31N 58°16' W 136°16'4 7.1
2019-Jun-12 14:00N 58°15' W 136°10'3 6.5
2019-Jun-12 13:30N 58°14' W 136°03'4 7.2
2019-Jun-12 13:00N 58°16' W 135°57'4 7.4
2019-Jun-12 12:30N 58°17' W 135°51'3 6.1
2019-Jun-12 12:00N 58°17' W 135°45'3 6.8
2019-Jun-12 11:30N 58°15' W 135°39'3 6.5
2019-Jun-12 11:00N 58°14' W 135°34'3 6.7
2019-Jun-12 10:30N 58°12' W 135°28'4 7.5
2019-Jun-12 09:59N 58°10' W 135°22'  
2019-Jun-05 06:33N 58°14' W 135°29'2 8.7
2019-Jun-05 06:19N 58°15' W 135°31'3 9.3
2019-Jun-05 06:00N 58°16' W 135°36'510.5
2019-Jun-05 05:30N 58°17' W 135°46'4 6.9
2019-Jun-05 05:00N 58°17' W 135°53'4 8.3
2019-Jun-05 04:30N 58°15' W 135°59'4 8.0
2019-Jun-05 04:00N 58°19' W 135°60'3 6.1
2019-Jun-05 03:30N 58°19' W 136°06'4 7.7
2019-Jun-05 03:00N 58°18' W 136°12'4 7.0
2019-Jun-05 02:30N 58°15' W 136°16'3 5.0
2019-Jun-05 01:59N 58°12' W 136°15'0 0.0
2019-Jun-05 01:23N 58°12' W 136°15'0 0.0
2019-Jun-05 00:53N 58°12' W 136°15'0 0.0
2019-Jun-05 00:29N 58°12' W 136°15'0 0.0
2019-Jun-04 23:38N 58°12' W 136°15'0 0.0
2019-Jun-04 23:23N 58°12' W 136°15'0 0.1
2019-Jun-04 22:59N 58°12' W 136°16'0 0.1
2019-Jun-04 22:29N 58°12' W 136°15'0 1.0
2019-Jun-04 22:00N 58°13' W 136°16'6 0.9
2019-Jun-04 14:59N 58°18' W 136°21'510.0
2019-Jun-04 14:30N 58°19' W 136°12'6 9.4
2019-Jun-04 13:53N 58°18' W 136°01'0 0.1
2019-Jun-04 13:27N 58°18' W 136°01'0 0.1
2019-Jun-04 13:00N 58°18' W 136°01'0 0.1
2019-Jun-04 12:30N 58°18' W 136°01'0 0.0
2019-Jun-04 12:00N 58°18' W 136°01'0 0.0
2019-Jun-04 11:30N 58°18' W 136°01'0 0.0
2019-Jun-04 11:00N 58°18' W 136°01'0 0.1
2019-Jun-04 10:30N 58°18' W 136°01'0 0.0
2019-Jun-04 09:57N 58°18' W 136°01'0 0.1
2019-Jun-04 09:30N 58°18' W 136°01'0 0.0
2019-Jun-04 09:00N 58°18' W 136°01'0 0.0
2019-Jun-04 08:30N 58°18' W 136°01'0 0.1
2019-Jun-04 08:00N 58°18' W 136°01'0 0.0
2019-Jun-04 07:24N 58°18' W 136°01'0 0.0
2019-Jun-04 07:00N 58°18' W 136°01'0 0.0
2019-Jun-04 06:30N 58°18' W 136°01'  

Dump ship's entire track history